sensor_id;sensor_type;location;lat;lon;timestamp;P1;durP1;ratioP1;P2;durP2;ratioP2
26920;SDS011;14483;47.844;9.660;2022-09-03T00:00:13;4.10;;;2.05;;
26920;SDS011;14483;47.844;9.660;2022-09-03T00:02:41;4.47;;;2.40;;
26920;SDS011;14483;47.844;9.660;2022-09-03T00:05:13;3.22;;;2.22;;
26920;SDS011;14483;47.844;9.660;2022-09-03T00:07:42;5.68;;;3.85;;
26920;SDS011;14483;47.844;9.660;2022-09-03T00:10:11;2.75;;;2.28;;
26920;SDS011;14483;47.844;9.660;2022-09-03T00:12:41;3.20;;;2.15;;
26920;SDS011;14483;47.844;9.660;2022-09-03T00:15:08;3.42;;;2.10;;
26920;SDS011;14483;47.844;9.660;2022-09-03T00:17:36;3.88;;;2.70;;
26920;SDS011;14483;47.844;9.660;2022-09-03T00:20:04;3.95;;;2.72;;
26920;SDS011;14483;47.844;9.660;2022-09-03T00:22:34;3.30;;;2.45;;
26920;SDS011;14483;47.844;9.660;2022-09-03T00:25:03;3.53;;;2.58;;
26920;SDS011;14483;47.844;9.660;2022-09-03T00:27:31;5.68;;;2.05;;
26920;SDS011;14483;47.844;9.660;2022-09-03T00:29:59;5.10;;;2.03;;
26920;SDS011;14483;47.844;9.660;2022-09-03T00:32:28;5.13;;;2.08;;
26920;SDS011;14483;47.844;9.660;2022-09-03T00:34:59;2.25;;;1.75;;
26920;SDS011;14483;47.844;9.660;2022-09-03T00:37:27;4.15;;;2.08;;
26920;SDS011;14483;47.844;9.660;2022-09-03T00:39:55;2.33;;;1.40;;
26920;SDS011;14483;47.844;9.660;2022-09-03T00:42:26;3.47;;;1.60;;
26920;SDS011;14483;47.844;9.660;2022-09-03T00:45:00;2.60;;;1.48;;
26920;SDS011;14483;47.844;9.660;2022-09-03T00:47:29;8.70;;;1.95;;
26920;SDS011;14483;47.844;9.660;2022-09-03T00:50:03;5.95;;;1.42;;
26920;SDS011;14483;47.844;9.660;2022-09-03T00:52:44;1.98;;;1.50;;
26920;SDS011;14483;47.844;9.660;2022-09-03T00:55:15;2.55;;;1.40;;
26920;SDS011;14483;47.844;9.660;2022-09-03T00:57:50;2.25;;;1.55;;
26920;SDS011;14483;47.844;9.660;2022-09-03T01:00:20;5.32;;;1.98;;
26920;SDS011;14483;47.844;9.660;2022-09-03T01:02:50;4.90;;;1.95;;
26920;SDS011;14483;47.844;9.660;2022-09-03T01:05:28;8.70;;;2.30;;
26920;SDS011;14483;47.844;9.660;2022-09-03T01:08:02;4.57;;;2.17;;
26920;SDS011;14483;47.844;9.660;2022-09-03T01:10:33;3.38;;;1.75;;
26920;SDS011;14483;47.844;9.660;2022-09-03T01:13:04;3.90;;;2.38;;
26920;SDS011;14483;47.844;9.660;2022-09-03T01:15:34;2.75;;;1.92;;
26920;SDS011;14483;47.844;9.660;2022-09-03T01:18:06;3.15;;;2.40;;
26920;SDS011;14483;47.844;9.660;2022-09-03T01:20:38;5.57;;;2.45;;
26920;SDS011;14483;47.844;9.660;2022-09-03T01:25:53;3.92;;;2.28;;
26920;SDS011;14483;47.844;9.660;2022-09-03T01:28:32;3.25;;;2.35;;
26920;SDS011;14483;47.844;9.660;2022-09-03T01:31:13;6.85;;;2.45;;
26920;SDS011;14483;47.844;9.660;2022-09-03T01:33:43;3.90;;;2.20;;
26920;SDS011;14483;47.844;9.660;2022-09-03T01:36:14;3.30;;;1.92;;
26920;SDS011;14483;47.844;9.660;2022-09-03T01:38:45;6.88;;;2.38;;
26920;SDS011;14483;47.844;9.660;2022-09-03T01:41:16;4.32;;;2.28;;
26920;SDS011;14483;47.844;9.660;2022-09-03T01:44:07;3.35;;;2.25;;
26920;SDS011;14483;47.844;9.660;2022-09-03T01:46:38;3.17;;;2.45;;
26920;SDS011;14483;47.844;9.660;2022-09-03T01:49:07;3.67;;;2.50;;
26920;SDS011;14483;47.844;9.660;2022-09-03T01:51:36;5.22;;;2.72;;
26920;SDS011;14483;47.844;9.660;2022-09-03T01:54:19;5.20;;;2.25;;
26920;SDS011;14483;47.844;9.660;2022-09-03T01:56:54;4.45;;;2.17;;
26920;SDS011;14483;47.844;9.660;2022-09-03T01:59:25;2.70;;;1.90;;
26920;SDS011;14483;47.844;9.660;2022-09-03T02:01:55;6.80;;;2.70;;
26920;SDS011;14483;47.844;9.660;2022-09-03T02:04:25;4.88;;;2.22;;
26920;SDS011;14483;47.844;9.660;2022-09-03T02:06:53;6.05;;;2.22;;
26920;SDS011;14483;47.844;9.660;2022-09-03T02:09:21;2.83;;;2.10;;
26920;SDS011;14483;47.844;9.660;2022-09-03T02:11:48;4.70;;;2.25;;
26920;SDS011;14483;47.844;9.660;2022-09-03T02:14:16;3.97;;;2.38;;
26920;SDS011;14483;47.844;9.660;2022-09-03T02:16:44;4.30;;;2.60;;
26920;SDS011;14483;47.844;9.660;2022-09-03T02:19:11;4.13;;;2.28;;
26920;SDS011;14483;47.844;9.660;2022-09-03T02:21:41;3.53;;;2.63;;
26920;SDS011;14483;47.844;9.660;2022-09-03T02:24:10;3.10;;;2.10;;
26920;SDS011;14483;47.844;9.660;2022-09-03T02:26:36;3.97;;;2.35;;
26920;SDS011;14483;47.844;9.660;2022-09-03T02:29:02;2.67;;;2.25;;
26920;SDS011;14483;47.844;9.660;2022-09-03T02:31:29;5.43;;;2.78;;
26920;SDS011;14483;47.844;9.660;2022-09-03T02:33:57;3.70;;;2.55;;
26920;SDS011;14483;47.844;9.660;2022-09-03T02:36:24;4.43;;;2.63;;
26920;SDS011;14483;47.844;9.660;2022-09-03T02:38:52;6.85;;;3.10;;
26920;SDS011;14483;47.844;9.660;2022-09-03T02:41:18;4.80;;;2.45;;
26920;SDS011;14483;47.844;9.660;2022-09-03T02:43:45;4.78;;;2.45;;
26920;SDS011;14483;47.844;9.660;2022-09-03T02:46:16;4.32;;;2.60;;
26920;SDS011;14483;47.844;9.660;2022-09-03T02:48:43;3.88;;;2.70;;
26920;SDS011;14483;47.844;9.660;2022-09-03T02:51:10;4.10;;;2.90;;
26920;SDS011;14483;47.844;9.660;2022-09-03T02:53:37;5.22;;;3.00;;
26920;SDS011;14483;47.844;9.660;2022-09-03T02:56:03;6.15;;;3.08;;
26920;SDS011;14483;47.844;9.660;2022-09-03T02:58:30;4.05;;;2.80;;
26920;SDS011;14483;47.844;9.660;2022-09-03T03:00:57;5.28;;;3.30;;
26920;SDS011;14483;47.844;9.660;2022-09-03T03:03:23;4.18;;;2.65;;
26920;SDS011;14483;47.844;9.660;2022-09-03T03:05:50;7.15;;;3.03;;
26920;SDS011;14483;47.844;9.660;2022-09-03T03:08:19;6.78;;;2.38;;
26920;SDS011;14483;47.844;9.660;2022-09-03T03:10:47;4.43;;;2.90;;
26920;SDS011;14483;47.844;9.660;2022-09-03T03:13:16;2.90;;;2.13;;
26920;SDS011;14483;47.844;9.660;2022-09-03T03:15:43;4.65;;;3.03;;
26920;SDS011;14483;47.844;9.660;2022-09-03T03:18:10;6.75;;;2.97;;
26920;SDS011;14483;47.844;9.660;2022-09-03T03:20:38;5.05;;;2.90;;
26920;SDS011;14483;47.844;9.660;2022-09-03T03:23:04;3.75;;;3.05;;
26920;SDS011;14483;47.844;9.660;2022-09-03T03:25:33;5.32;;;3.38;;
26920;SDS011;14483;47.844;9.660;2022-09-03T03:27:59;3.03;;;2.70;;
26920;SDS011;14483;47.844;9.660;2022-09-03T03:30:26;4.18;;;3.25;;
26920;SDS011;14483;47.844;9.660;2022-09-03T03:32:52;4.65;;;2.55;;
26920;SDS011;14483;47.844;9.660;2022-09-03T03:35:19;5.03;;;3.17;;
26920;SDS011;14483;47.844;9.660;2022-09-03T03:37:45;4.65;;;3.10;;
26920;SDS011;14483;47.844;9.660;2022-09-03T03:40:12;5.63;;;3.20;;
26920;SDS011;14483;47.844;9.660;2022-09-03T03:42:40;5.35;;;3.20;;
26920;SDS011;14483;47.844;9.660;2022-09-03T03:45:07;6.53;;;3.22;;
26920;SDS011;14483;47.844;9.660;2022-09-03T03:47:34;5.13;;;3.45;;
26920;SDS011;14483;47.844;9.660;2022-09-03T03:50:01;4.80;;;2.58;;
26920;SDS011;14483;47.844;9.660;2022-09-03T03:52:27;6.28;;;3.85;;
26920;SDS011;14483;47.844;9.660;2022-09-03T03:54:53;4.60;;;2.75;;
26920;SDS011;14483;47.844;9.660;2022-09-03T03:57:21;4.10;;;2.92;;
26920;SDS011;14483;47.844;9.660;2022-09-03T03:59:49;6.32;;;3.45;;
26920;SDS011;14483;47.844;9.660;2022-09-03T04:02:15;4.35;;;3.45;;
26920;SDS011;14483;47.844;9.660;2022-09-03T04:04:42;4.45;;;2.90;;
26920;SDS011;14483;47.844;9.660;2022-09-03T04:07:09;3.65;;;2.65;;
26920;SDS011;14483;47.844;9.660;2022-09-03T04:09:35;3.78;;;2.47;;
26920;SDS011;14483;47.844;9.660;2022-09-03T04:12:02;3.92;;;2.72;;
26920;SDS011;14483;47.844;9.660;2022-09-03T04:14:29;5.30;;;2.55;;
26920;SDS011;14483;47.844;9.660;2022-09-03T04:16:57;7.97;;;2.90;;
26920;SDS011;14483;47.844;9.660;2022-09-03T04:19:24;5.32;;;2.75;;
26920;SDS011;14483;47.844;9.660;2022-09-03T04:21:50;5.05;;;2.88;;
26920;SDS011;14483;47.844;9.660;2022-09-03T04:24:17;3.75;;;2.88;;
26920;SDS011;14483;47.844;9.660;2022-09-03T04:26:43;4.72;;;2.78;;
26920;SDS011;14483;47.844;9.660;2022-09-03T04:29:11;4.00;;;3.17;;
26920;SDS011;14483;47.844;9.660;2022-09-03T04:31:37;9.52;;;3.30;;
26920;SDS011;14483;47.844;9.660;2022-09-03T04:34:25;15.82;;;3.63;;
26920;SDS011;14483;47.844;9.660;2022-09-03T04:36:52;6.22;;;3.13;;
26920;SDS011;14483;47.844;9.660;2022-09-03T04:39:18;3.63;;;3.10;;
26920;SDS011;14483;47.844;9.660;2022-09-03T04:41:44;4.32;;;3.10;;
26920;SDS011;14483;47.844;9.660;2022-09-03T04:44:11;5.40;;;3.35;;
26920;SDS011;14483;47.844;9.660;2022-09-03T04:46:37;6.60;;;4.32;;
26920;SDS011;14483;47.844;9.660;2022-09-03T04:49:04;5.55;;;3.50;;
26920;SDS011;14483;47.844;9.660;2022-09-03T04:51:32;4.68;;;3.15;;
26920;SDS011;14483;47.844;9.660;2022-09-03T04:53:59;6.82;;;3.65;;
26920;SDS011;14483;47.844;9.660;2022-09-03T04:56:26;10.93;;;3.83;;
26920;SDS011;14483;47.844;9.660;2022-09-03T04:58:53;4.60;;;3.42;;
26920;SDS011;14483;47.844;9.660;2022-09-03T05:01:21;4.72;;;4.10;;
26920;SDS011;14483;47.844;9.660;2022-09-03T05:03:47;4.57;;;2.97;;
26920;SDS011;14483;47.844;9.660;2022-09-03T05:06:16;4.47;;;3.35;;
26920;SDS011;14483;47.844;9.660;2022-09-03T05:08:46;4.32;;;3.53;;
26920;SDS011;14483;47.844;9.660;2022-09-03T05:11:12;4.82;;;3.53;;
26920;SDS011;14483;47.844;9.660;2022-09-03T05:13:39;4.28;;;3.13;;
26920;SDS011;14483;47.844;9.660;2022-09-03T05:16:06;6.95;;;3.42;;
26920;SDS011;14483;47.844;9.660;2022-09-03T05:18:33;4.90;;;3.78;;
26920;SDS011;14483;47.844;9.660;2022-09-03T05:21:00;8.70;;;3.55;;
26920;SDS011;14483;47.844;9.660;2022-09-03T05:23:27;6.43;;;3.67;;
26920;SDS011;14483;47.844;9.660;2022-09-03T05:25:55;5.53;;;3.72;;
26920;SDS011;14483;47.844;9.660;2022-09-03T05:28:22;6.68;;;3.03;;
26920;SDS011;14483;47.844;9.660;2022-09-03T05:30:56;5.53;;;3.78;;
26920;SDS011;14483;47.844;9.660;2022-09-03T05:33:23;6.10;;;4.83;;
26920;SDS011;14483;47.844;9.660;2022-09-03T05:35:49;5.47;;;3.60;;
26920;SDS011;14483;47.844;9.660;2022-09-03T05:38:17;8.00;;;3.85;;
26920;SDS011;14483;47.844;9.660;2022-09-03T05:40:44;4.57;;;3.95;;
26920;SDS011;14483;47.844;9.660;2022-09-03T05:43:11;6.35;;;4.30;;
26920;SDS011;14483;47.844;9.660;2022-09-03T05:45:38;7.15;;;3.55;;
26920;SDS011;14483;47.844;9.660;2022-09-03T05:48:05;4.47;;;3.47;;
26920;SDS011;14483;47.844;9.660;2022-09-03T05:50:32;7.10;;;3.33;;
26920;SDS011;14483;47.844;9.660;2022-09-03T05:52:58;6.97;;;3.53;;
26920;SDS011;14483;47.844;9.660;2022-09-03T05:55:25;5.57;;;3.30;;
26920;SDS011;14483;47.844;9.660;2022-09-03T05:57:52;4.75;;;3.20;;
26920;SDS011;14483;47.844;9.660;2022-09-03T06:00:20;7.03;;;3.88;;
26920;SDS011;14483;47.844;9.660;2022-09-03T06:02:48;7.20;;;3.45;;
26920;SDS011;14483;47.844;9.660;2022-09-03T06:05:15;9.35;;;4.57;;
26920;SDS011;14483;47.844;9.660;2022-09-03T06:07:42;7.28;;;3.85;;
26920;SDS011;14483;47.844;9.660;2022-09-03T06:10:09;4.57;;;3.80;;
26920;SDS011;14483;47.844;9.660;2022-09-03T06:12:36;5.80;;;3.42;;
26920;SDS011;14483;47.844;9.660;2022-09-03T06:15:03;5.72;;;3.35;;
26920;SDS011;14483;47.844;9.660;2022-09-03T06:17:31;4.97;;;3.00;;
26920;SDS011;14483;47.844;9.660;2022-09-03T06:19:58;3.83;;;2.65;;
26920;SDS011;14483;47.844;9.660;2022-09-03T06:22:24;4.40;;;3.28;;
26920;SDS011;14483;47.844;9.660;2022-09-03T06:24:52;4.07;;;3.25;;
26920;SDS011;14483;47.844;9.660;2022-09-03T06:27:18;3.92;;;2.97;;
26920;SDS011;14483;47.844;9.660;2022-09-03T06:29:45;3.88;;;2.72;;
26920;SDS011;14483;47.844;9.660;2022-09-03T06:32:12;4.78;;;3.53;;
26920;SDS011;14483;47.844;9.660;2022-09-03T06:34:40;4.40;;;3.28;;
26920;SDS011;14483;47.844;9.660;2022-09-03T06:37:07;3.95;;;3.05;;
26920;SDS011;14483;47.844;9.660;2022-09-03T06:39:33;4.13;;;2.47;;
26920;SDS011;14483;47.844;9.660;2022-09-03T06:41:59;3.67;;;3.08;;
26920;SDS011;14483;47.844;9.660;2022-09-03T06:44:26;4.55;;;2.65;;
26920;SDS011;14483;47.844;9.660;2022-09-03T06:46:52;3.92;;;3.10;;
26920;SDS011;14483;47.844;9.660;2022-09-03T06:49:18;4.68;;;3.00;;
26920;SDS011;14483;47.844;9.660;2022-09-03T06:51:47;5.20;;;3.20;;
26920;SDS011;14483;47.844;9.660;2022-09-03T06:54:13;4.80;;;3.17;;
26920;SDS011;14483;47.844;9.660;2022-09-03T06:56:40;5.70;;;4.13;;
26920;SDS011;14483;47.844;9.660;2022-09-03T06:59:07;7.55;;;3.70;;
26920;SDS011;14483;47.844;9.660;2022-09-03T07:01:34;6.82;;;3.38;;
26920;SDS011;14483;47.844;9.660;2022-09-03T07:04:01;4.20;;;2.72;;
26920;SDS011;14483;47.844;9.660;2022-09-03T07:06:29;6.40;;;3.60;;
26920;SDS011;14483;47.844;9.660;2022-09-03T07:08:57;5.75;;;3.33;;
26920;SDS011;14483;47.844;9.660;2022-09-03T07:11:25;4.63;;;2.97;;
26920;SDS011;14483;47.844;9.660;2022-09-03T07:13:53;4.95;;;2.90;;
26920;SDS011;14483;47.844;9.660;2022-09-03T07:16:20;4.00;;;2.75;;
26920;SDS011;14483;47.844;9.660;2022-09-03T07:18:47;3.70;;;2.55;;
26920;SDS011;14483;47.844;9.660;2022-09-03T07:21:14;5.00;;;2.53;;
26920;SDS011;14483;47.844;9.660;2022-09-03T07:23:41;2.70;;;1.83;;
26920;SDS011;14483;47.844;9.660;2022-09-03T07:26:10;2.83;;;1.80;;
26920;SDS011;14483;47.844;9.660;2022-09-03T07:28:38;3.42;;;1.50;;
26920;SDS011;14483;47.844;9.660;2022-09-03T07:31:06;3.50;;;1.90;;
26920;SDS011;14483;47.844;9.660;2022-09-03T07:33:32;2.65;;;1.50;;
26920;SDS011;14483;47.844;9.660;2022-09-03T07:36:02;2.55;;;1.73;;
26920;SDS011;14483;47.844;9.660;2022-09-03T07:38:30;2.85;;;1.90;;
26920;SDS011;14483;47.844;9.660;2022-09-03T07:40:56;1.95;;;1.45;;
26920;SDS011;14483;47.844;9.660;2022-09-03T07:43:25;2.80;;;1.65;;
26920;SDS011;14483;47.844;9.660;2022-09-03T07:45:52;1.90;;;1.30;;
26920;SDS011;14483;47.844;9.660;2022-09-03T07:48:19;4.38;;;1.92;;
26920;SDS011;14483;47.844;9.660;2022-09-03T07:50:46;2.22;;;1.30;;
26920;SDS011;14483;47.844;9.660;2022-09-03T07:53:12;2.17;;;1.60;;
26920;SDS011;14483;47.844;9.660;2022-09-03T07:55:39;2.28;;;1.60;;
26920;SDS011;14483;47.844;9.660;2022-09-03T07:58:05;2.50;;;1.70;;
26920;SDS011;14483;47.844;9.660;2022-09-03T08:00:33;5.13;;;1.95;;
26920;SDS011;14483;47.844;9.660;2022-09-03T08:02:59;2.63;;;1.48;;
26920;SDS011;14483;47.844;9.660;2022-09-03T08:05:30;3.72;;;1.83;;
26920;SDS011;14483;47.844;9.660;2022-09-03T08:07:58;2.70;;;1.85;;
26920;SDS011;14483;47.844;9.660;2022-09-03T08:10:24;3.88;;;1.75;;
26920;SDS011;14483;47.844;9.660;2022-09-03T08:12:52;2.97;;;1.63;;
26920;SDS011;14483;47.844;9.660;2022-09-03T08:15:19;2.35;;;1.58;;
26920;SDS011;14483;47.844;9.660;2022-09-03T08:17:46;5.57;;;2.65;;
26920;SDS011;14483;47.844;9.660;2022-09-03T08:20:13;2.15;;;1.45;;
26920;SDS011;14483;47.844;9.660;2022-09-03T08:22:40;2.15;;;1.23;;
26920;SDS011;14483;47.844;9.660;2022-09-03T08:25:06;3.20;;;1.40;;
26920;SDS011;14483;47.844;9.660;2022-09-03T08:27:33;2.28;;;1.40;;
26920;SDS011;14483;47.844;9.660;2022-09-03T08:29:59;1.60;;;1.13;;
26920;SDS011;14483;47.844;9.660;2022-09-03T08:32:28;1.35;;;0.95;;
26920;SDS011;14483;47.844;9.660;2022-09-03T08:34:55;1.70;;;1.10;;
26920;SDS011;14483;47.844;9.660;2022-09-03T08:37:22;2.75;;;1.20;;
26920;SDS011;14483;47.844;9.660;2022-09-03T08:39:51;1.30;;;0.98;;
26920;SDS011;14483;47.844;9.660;2022-09-03T08:42:24;2.58;;;0.80;;
26920;SDS011;14483;47.844;9.660;2022-09-03T08:44:53;2.05;;;1.10;;
26920;SDS011;14483;47.844;9.660;2022-09-03T08:47:21;3.30;;;1.30;;
26920;SDS011;14483;47.844;9.660;2022-09-03T08:49:51;1.50;;;0.90;;
26920;SDS011;14483;47.844;9.660;2022-09-03T08:52:23;1.85;;;0.90;;
26920;SDS011;14483;47.844;9.660;2022-09-03T08:54:50;3.00;;;0.80;;
26920;SDS011;14483;47.844;9.660;2022-09-03T08:57:18;2.47;;;1.25;;
26920;SDS011;14483;47.844;9.660;2022-09-03T08:59:45;1.63;;;1.25;;
26920;SDS011;14483;47.844;9.660;2022-09-03T09:02:15;1.70;;;0.95;;
26920;SDS011;14483;47.844;9.660;2022-09-03T09:04:48;1.10;;;0.80;;
26920;SDS011;14483;47.844;9.660;2022-09-03T09:07:20;3.00;;;1.10;;
26920;SDS011;14483;47.844;9.660;2022-09-03T09:09:49;1.30;;;0.90;;
26920;SDS011;14483;47.844;9.660;2022-09-03T09:12:21;2.78;;;1.00;;
26920;SDS011;14483;47.844;9.660;2022-09-03T09:14:51;1.50;;;1.00;;
26920;SDS011;14483;47.844;9.660;2022-09-03T09:17:29;2.17;;;1.02;;
26920;SDS011;14483;47.844;9.660;2022-09-03T09:20:03;1.13;;;0.80;;
26920;SDS011;14483;47.844;9.660;2022-09-03T09:22:32;1.42;;;1.08;;
26920;SDS011;14483;47.844;9.660;2022-09-03T09:25:03;1.77;;;0.95;;
26920;SDS011;14483;47.844;9.660;2022-09-03T09:27:33;3.00;;;0.85;;
26920;SDS011;14483;47.844;9.660;2022-09-03T09:30:00;1.95;;;1.08;;
26920;SDS011;14483;47.844;9.660;2022-09-03T09:32:29;3.13;;;0.98;;
26920;SDS011;14483;47.844;9.660;2022-09-03T09:34:56;1.95;;;1.00;;
26920;SDS011;14483;47.844;9.660;2022-09-03T09:37:22;1.20;;;0.80;;
26920;SDS011;14483;47.844;9.660;2022-09-03T09:39:55;1.40;;;0.90;;
26920;SDS011;14483;47.844;9.660;2022-09-03T09:44:49;2.00;;;0.70;;
26920;SDS011;14483;47.844;9.660;2022-09-03T09:47:20;5.03;;;1.15;;
26920;SDS011;14483;47.844;9.660;2022-09-03T09:49:50;1.52;;;1.00;;
26920;SDS011;14483;47.844;9.660;2022-09-03T09:52:16;1.38;;;0.80;;
26920;SDS011;14483;47.844;9.660;2022-09-03T09:54:44;1.90;;;1.00;;
26920;SDS011;14483;47.844;9.660;2022-09-03T09:57:13;1.30;;;1.00;;
26920;SDS011;14483;47.844;9.660;2022-09-03T09:59:42;3.10;;;0.73;;
26920;SDS011;14483;47.844;9.660;2022-09-03T10:02:12;1.92;;;1.00;;
26920;SDS011;14483;47.844;9.660;2022-09-03T10:04:39;1.75;;;1.00;;
26920;SDS011;14483;47.844;9.660;2022-09-03T10:07:15;1.27;;;1.00;;
26920;SDS011;14483;47.844;9.660;2022-09-03T10:09:44;2.00;;;1.15;;
26920;SDS011;14483;47.844;9.660;2022-09-03T10:12:12;1.48;;;0.80;;
26920;SDS011;14483;47.844;9.660;2022-09-03T10:14:40;1.70;;;0.90;;
26920;SDS011;14483;47.844;9.660;2022-09-03T10:17:12;1.70;;;0.95;;
26920;SDS011;14483;47.844;9.660;2022-09-03T10:19:40;2.40;;;0.80;;
26920;SDS011;14483;47.844;9.660;2022-09-03T10:22:28;3.10;;;0.98;;
26920;SDS011;14483;47.844;9.660;2022-09-03T10:24:55;1.73;;;0.90;;
26920;SDS011;14483;47.844;9.660;2022-09-03T10:27:23;2.17;;;1.10;;
26920;SDS011;14483;47.844;9.660;2022-09-03T10:29:49;2.42;;;0.90;;
26920;SDS011;14483;47.844;9.660;2022-09-03T10:32:30;0.93;;;0.70;;
26920;SDS011;14483;47.844;9.660;2022-09-03T10:35:02;1.17;;;0.60;;
26920;SDS011;14483;47.844;9.660;2022-09-03T10:37:35;1.17;;;0.60;;
26920;SDS011;14483;47.844;9.660;2022-09-03T10:40:17;0.63;;;0.60;;
26920;SDS011;14483;47.844;9.660;2022-09-03T10:42:46;3.17;;;0.63;;
26920;SDS011;14483;47.844;9.660;2022-09-03T10:45:17;1.75;;;0.63;;
26920;SDS011;14483;47.844;9.660;2022-09-03T10:47:53;1.00;;;0.57;;
26920;SDS011;14483;47.844;9.660;2022-09-03T10:50:24;1.50;;;0.80;;
26920;SDS011;14483;47.844;9.660;2022-09-03T10:52:58;1.60;;;0.80;;
26920;SDS011;14483;47.844;9.660;2022-09-03T10:55:34;2.70;;;1.00;;
26920;SDS011;14483;47.844;9.660;2022-09-03T10:58:07;3.70;;;0.80;;
26920;SDS011;14483;47.844;9.660;2022-09-03T11:00:38;2.63;;;0.93;;
26920;SDS011;14483;47.844;9.660;2022-09-03T11:05:53;1.15;;;0.77;;
26920;SDS011;14483;47.844;9.660;2022-09-03T11:08:20;0.90;;;0.70;;
26920;SDS011;14483;47.844;9.660;2022-09-03T11:10:49;1.40;;;0.93;;
26920;SDS011;14483;47.844;9.660;2022-09-03T11:13:19;2.15;;;0.82;;
26920;SDS011;14483;47.844;9.660;2022-09-03T11:15:47;1.45;;;0.75;;
26920;SDS011;14483;47.844;9.660;2022-09-03T11:18:15;3.35;;;1.20;;
26920;SDS011;14483;47.844;9.660;2022-09-03T11:20:44;1.70;;;0.98;;
26920;SDS011;14483;47.844;9.660;2022-09-03T11:23:14;3.00;;;0.90;;
26920;SDS011;14483;47.844;9.660;2022-09-03T11:25:45;1.00;;;0.65;;
26920;SDS011;14483;47.844;9.660;2022-09-03T11:28:15;1.10;;;0.70;;
26920;SDS011;14483;47.844;9.660;2022-09-03T11:30:47;1.95;;;0.85;;
26920;SDS011;14483;47.844;9.660;2022-09-03T11:33:16;1.75;;;1.08;;
26920;SDS011;14483;47.844;9.660;2022-09-03T11:35:44;1.75;;;0.80;;
26920;SDS011;14483;47.844;9.660;2022-09-03T11:38:19;2.22;;;0.70;;
26920;SDS011;14483;47.844;9.660;2022-09-03T11:40:55;3.00;;;1.20;;
26920;SDS011;14483;47.844;9.660;2022-09-03T11:43:24;2.35;;;1.00;;
26920;SDS011;14483;47.844;9.660;2022-09-03T11:46:00;2.92;;;1.35;;
26920;SDS011;14483;47.844;9.660;2022-09-03T11:48:30;2.30;;;1.38;;
26920;SDS011;14483;47.844;9.660;2022-09-03T11:50:59;2.57;;;1.00;;
26920;SDS011;14483;47.844;9.660;2022-09-03T11:53:32;1.45;;;0.90;;
26920;SDS011;14483;47.844;9.660;2022-09-03T11:58:25;2.72;;;1.00;;
26920;SDS011;14483;47.844;9.660;2022-09-03T12:00:54;1.10;;;0.75;;
26920;SDS011;14483;47.844;9.660;2022-09-03T12:03:22;1.27;;;0.73;;
26920;SDS011;14483;47.844;9.660;2022-09-03T12:05:55;1.42;;;0.80;;
26920;SDS011;14483;47.844;9.660;2022-09-03T12:08:37;1.13;;;0.80;;
26920;SDS011;14483;47.844;9.660;2022-09-03T12:11:10;7.57;;;0.95;;
26920;SDS011;14483;47.844;9.660;2022-09-03T12:13:45;1.23;;;0.60;;
26920;SDS011;14483;47.844;9.660;2022-09-03T12:18:59;1.40;;;0.90;;
26920;SDS011;14483;47.844;9.660;2022-09-03T12:21:28;2.88;;;1.00;;
26920;SDS011;14483;47.844;9.660;2022-09-03T12:23:56;1.42;;;1.00;;
26920;SDS011;14483;47.844;9.660;2022-09-03T12:26:23;1.75;;;1.00;;
26920;SDS011;14483;47.844;9.660;2022-09-03T12:28:51;1.85;;;0.90;;
26920;SDS011;14483;47.844;9.660;2022-09-03T12:31:20;1.17;;;0.80;;
26920;SDS011;14483;47.844;9.660;2022-09-03T12:33:48;1.23;;;0.70;;
26920;SDS011;14483;47.844;9.660;2022-09-03T12:36:15;2.40;;;0.90;;
26920;SDS011;14483;47.844;9.660;2022-09-03T12:38:42;1.30;;;0.90;;
26920;SDS011;14483;47.844;9.660;2022-09-03T12:41:23;3.15;;;1.33;;
26920;SDS011;14483;47.844;9.660;2022-09-03T12:43:51;4.53;;;0.93;;
26920;SDS011;14483;47.844;9.660;2022-09-03T12:46:18;2.58;;;0.88;;
26920;SDS011;14483;47.844;9.660;2022-09-03T12:48:53;3.28;;;1.10;;
26920;SDS011;14483;47.844;9.660;2022-09-03T12:51:20;1.65;;;0.90;;
26920;SDS011;14483;47.844;9.660;2022-09-03T12:53:46;2.10;;;1.10;;
26920;SDS011;14483;47.844;9.660;2022-09-03T12:56:14;2.60;;;1.13;;
26920;SDS011;14483;47.844;9.660;2022-09-03T12:58:43;3.92;;;1.50;;
26920;SDS011;14483;47.844;9.660;2022-09-03T13:01:13;1.70;;;1.20;;
26920;SDS011;14483;47.844;9.660;2022-09-03T13:03:41;4.35;;;1.52;;
26920;SDS011;14483;47.844;9.660;2022-09-03T13:06:09;3.70;;;1.13;;
26920;SDS011;14483;47.844;9.660;2022-09-03T13:08:39;3.22;;;1.33;;
26920;SDS011;14483;47.844;9.660;2022-09-03T13:11:06;4.05;;;1.92;;
26920;SDS011;14483;47.844;9.660;2022-09-03T13:13:47;2.42;;;1.40;;
26920;SDS011;14483;47.844;9.660;2022-09-03T13:16:28;2.30;;;1.60;;
26920;SDS011;14483;47.844;9.660;2022-09-03T13:19:00;2.13;;;1.17;;
26920;SDS011;14483;47.844;9.660;2022-09-03T13:21:31;2.70;;;1.20;;
26920;SDS011;14483;47.844;9.660;2022-09-03T13:24:06;6.63;;;1.42;;
26920;SDS011;14483;47.844;9.660;2022-09-03T13:26:37;1.60;;;1.15;;
26920;SDS011;14483;47.844;9.660;2022-09-03T13:31:56;2.45;;;1.17;;
26920;SDS011;14483;47.844;9.660;2022-09-03T13:34:24;2.40;;;1.02;;
26920;SDS011;14483;47.844;9.660;2022-09-03T13:36:53;1.83;;;0.88;;
26920;SDS011;14483;47.844;9.660;2022-09-03T13:39:24;3.05;;;1.00;;
26920;SDS011;14483;47.844;9.660;2022-09-03T13:41:52;1.58;;;0.90;;
26920;SDS011;14483;47.844;9.660;2022-09-03T13:44:23;3.15;;;0.90;;
26920;SDS011;14483;47.844;9.660;2022-09-03T13:46:58;4.10;;;2.08;;
26920;SDS011;14483;47.844;9.660;2022-09-03T13:49:26;2.70;;;0.90;;
26920;SDS011;14483;47.844;9.660;2022-09-03T13:52:17;1.00;;;0.80;;
26920;SDS011;14483;47.844;9.660;2022-09-03T13:54:48;5.20;;;1.17;;
26920;SDS011;14483;47.844;9.660;2022-09-03T13:57:20;3.90;;;0.90;;
26920;SDS011;14483;47.844;9.660;2022-09-03T13:59:50;5.28;;;0.80;;
26920;SDS011;14483;47.844;9.660;2022-09-03T14:02:19;1.05;;;0.60;;
26920;SDS011;14483;47.844;9.660;2022-09-03T14:04:50;4.10;;;0.70;;
26920;SDS011;14483;47.844;9.660;2022-09-03T14:07:20;2.78;;;0.82;;
26920;SDS011;14483;47.844;9.660;2022-09-03T14:09:53;1.52;;;0.70;;
26920;SDS011;14483;47.844;9.660;2022-09-03T14:12:24;1.27;;;0.70;;
26920;SDS011;14483;47.844;9.660;2022-09-03T14:14:56;10.82;;;1.08;;
26920;SDS011;14483;47.844;9.660;2022-09-03T14:17:29;4.60;;;1.10;;
26920;SDS011;14483;47.844;9.660;2022-09-03T14:19:58;1.23;;;0.60;;
26920;SDS011;14483;47.844;9.660;2022-09-03T14:22:28;1.95;;;0.70;;
26920;SDS011;14483;47.844;9.660;2022-09-03T14:24:57;0.82;;;0.50;;
26920;SDS011;14483;47.844;9.660;2022-09-03T14:27:25;1.75;;;1.13;;
26920;SDS011;14483;47.844;9.660;2022-09-03T14:29:53;0.60;;;0.50;;
26920;SDS011;14483;47.844;9.660;2022-09-03T14:32:28;3.75;;;1.13;;
26920;SDS011;14483;47.844;9.660;2022-09-03T14:34:59;0.73;;;0.60;;
26920;SDS011;14483;47.844;9.660;2022-09-03T14:37:31;1.50;;;0.70;;
26920;SDS011;14483;47.844;9.660;2022-09-03T14:40:03;1.48;;;0.98;;
26920;SDS011;14483;47.844;9.660;2022-09-03T14:42:44;0.93;;;0.68;;
26920;SDS011;14483;47.844;9.660;2022-09-03T14:45:24;1.55;;;0.50;;
26920;SDS011;14483;47.844;9.660;2022-09-03T14:48:10;2.22;;;0.60;;
26920;SDS011;14483;47.844;9.660;2022-09-03T14:50:51;1.25;;;0.73;;
26920;SDS011;14483;47.844;9.660;2022-09-03T14:53:29;2.03;;;0.70;;
26920;SDS011;14483;47.844;9.660;2022-09-03T14:56:04;1.50;;;0.68;;
26920;SDS011;14483;47.844;9.660;2022-09-03T14:58:37;1.52;;;0.70;;
26920;SDS011;14483;47.844;9.660;2022-09-03T15:01:09;4.83;;;0.80;;
26920;SDS011;14483;47.844;9.660;2022-09-03T15:03:52;3.08;;;0.50;;
26920;SDS011;14483;47.844;9.660;2022-09-03T15:06:23;1.77;;;0.80;;
26920;SDS011;14483;47.844;9.660;2022-09-03T15:11:20;6.95;;;0.80;;
26920;SDS011;14483;47.844;9.660;2022-09-03T15:13:49;4.70;;;0.88;;
26920;SDS011;14483;47.844;9.660;2022-09-03T15:16:26;1.67;;;0.70;;
26920;SDS011;14483;47.844;9.660;2022-09-03T15:19:01;1.25;;;0.63;;